sensor_id;sensor_type;location;lat;lon;timestamp;temperature;humidity
19359;DHT22;9815;52.334;20.890;2023-07-31T00:02:20;17.90;99.90
19359;DHT22;9815;52.334;20.890;2023-07-31T00:04:48;17.80;99.90
19359;DHT22;9815;52.334;20.890;2023-07-31T00:07:18;17.80;99.90
19359;DHT22;9815;52.334;20.890;2023-07-31T00:09:46;17.70;99.90
19359;DHT22;9815;52.334;20.890;2023-07-31T00:12:14;17.70;99.90
19359;DHT22;9815;52.334;20.890;2023-07-31T00:14:42;17.70;99.90
19359;DHT22;9815;52.334;20.890;2023-07-31T00:17:11;17.60;99.90
19359;DHT22;9815;52.334;20.890;2023-07-31T00:19:39;17.60;99.90
19359;DHT22;9815;52.334;20.890;2023-07-31T00:22:07;17.50;99.90
19359;DHT22;9815;52.334;20.890;2023-07-31T00:24:37;17.50;99.90
19359;DHT22;9815;52.334;20.890;2023-07-31T00:27:05;17.40;99.90
19359;DHT22;9815;52.334;20.890;2023-07-31T00:29:33;17.40;99.90
19359;DHT22;9815;52.334;20.890;2023-07-31T00:32:04;17.30;99.90
19359;DHT22;9815;52.334;20.890;2023-07-31T00:34:33;17.40;99.90
19359;DHT22;9815;52.334;20.890;2023-07-31T00:37:02;17.30;99.90
19359;DHT22;9815;52.334;20.890;2023-07-31T00:39:31;17.20;99.90
19359;DHT22;9815;52.334;20.890;2023-07-31T00:42:00;17.20;99.90
19359;DHT22;9815;52.334;20.890;2023-07-31T00:44:29;17.30;99.90
19359;DHT22;9815;52.334;20.890;2023-07-31T00:46:57;17.20;99.90
19359;DHT22;9815;52.334;20.890;2023-07-31T00:49:26;17.20;99.90
19359;DHT22;9815;52.334;20.890;2023-07-31T00:51:55;17.20;99.90
19359;DHT22;9815;52.334;20.890;2023-07-31T00:54:25;17.20;99.90
19359;DHT22;9815;52.334;20.890;2023-07-31T00:56:54;17.10;99.90
19359;DHT22;9815;52.334;20.890;2023-07-31T00:59:24;17.20;99.90
19359;DHT22;9815;52.334;20.890;2023-07-31T01:01:52;17.10;99.90
19359;DHT22;9815;52.334;20.890;2023-07-31T01:04:21;17.10;99.90
19359;DHT22;9815;52.334;20.890;2023-07-31T01:06:56;17.10;99.90
19359;DHT22;9815;52.334;20.890;2023-07-31T01:09:34;17.00;99.90
19359;DHT22;9815;52.334;20.890;2023-07-31T01:12:04;17.00;99.90
19359;DHT22;9815;52.334;20.890;2023-07-31T01:14:36;17.00;99.90
19359;DHT22;9815;52.334;20.890;2023-07-31T01:17:04;17.00;99.90
19359;DHT22;9815;52.334;20.890;2023-07-31T01:19:33;16.90;99.90
19359;DHT22;9815;52.334;20.890;2023-07-31T01:22:16;16.90;99.90
19359;DHT22;9815;52.334;20.890;2023-07-31T01:24:59;16.90;99.90
19359;DHT22;9815;52.334;20.890;2023-07-31T01:27:35;16.80;99.90
19359;DHT22;9815;52.334;20.890;2023-07-31T01:30:11;16.80;99.90
19359;DHT22;9815;52.334;20.890;2023-07-31T01:32:43;16.70;99.90
19359;DHT22;9815;52.334;20.890;2023-07-31T01:35:11;16.70;99.90
19359;DHT22;9815;52.334;20.890;2023-07-31T01:37:40;16.70;99.90
19359;DHT22;9815;52.334;20.890;2023-07-31T01:40:09;16.60;99.90
19359;DHT22;9815;52.334;20.890;2023-07-31T01:42:39;16.60;99.90
19359;DHT22;9815;52.334;20.890;2023-07-31T01:45:08;16.60;99.90
19359;DHT22;9815;52.334;20.890;2023-07-31T01:47:37;16.60;99.90
19359;DHT22;9815;52.334;20.890;2023-07-31T01:50:06;16.60;99.90
19359;DHT22;9815;52.334;20.890;2023-07-31T01:52:36;16.50;99.90
19359;DHT22;9815;52.334;20.890;2023-07-31T01:55:04;16.50;99.90
19359;DHT22;9815;52.334;20.890;2023-07-31T01:57:33;16.50;99.90
19359;DHT22;9815;52.334;20.890;2023-07-31T02:00:03;16.50;99.90
19359;DHT22;9815;52.334;20.890;2023-07-31T02:02:37;16.50;99.90
19359;DHT22;9815;52.334;20.890;2023-07-31T02:05:06;16.40;99.90
19359;DHT22;9815;52.334;20.890;2023-07-31T02:07:34;16.40;99.90
19359;DHT22;9815;52.334;20.890;2023-07-31T02:10:03;16.40;99.90
19359;DHT22;9815;52.334;20.890;2023-07-31T02:12:31;16.30;99.90
19359;DHT22;9815;52.334;20.890;2023-07-31T02:15:03;16.30;99.90
19359;DHT22;9815;52.334;20.890;2023-07-31T02:17:31;16.30;99.90
19359;DHT22;9815;52.334;20.890;2023-07-31T02:20:01;16.30;99.90
19359;DHT22;9815;52.334;20.890;2023-07-31T02:22:30;16.20;99.90
19359;DHT22;9815;52.334;20.890;2023-07-31T02:24:58;16.20;99.90
19359;DHT22;9815;52.334;20.890;2023-07-31T02:27:26;16.20;99.90
19359;DHT22;9815;52.334;20.890;2023-07-31T02:29:55;16.20;99.90
19359;DHT22;9815;52.334;20.890;2023-07-31T02:32:27;16.10;99.90
19359;DHT22;9815;52.334;20.890;2023-07-31T02:34:56;16.10;99.90
19359;DHT22;9815;52.334;20.890;2023-07-31T02:37:25;16.10;99.90
19359;DHT22;9815;52.334;20.890;2023-07-31T02:39:55;16.10;99.90
19359;DHT22;9815;52.334;20.890;2023-07-31T02:42:26;16.10;99.90
19359;DHT22;9815;52.334;20.890;2023-07-31T02:44:54;16.10;99.90
19359;DHT22;9815;52.334;20.890;2023-07-31T02:47:23;16.20;99.90
19359;DHT22;9815;52.334;20.890;2023-07-31T02:49:52;16.20;99.90
19359;DHT22;9815;52.334;20.890;2023-07-31T02:52:21;16.20;99.90
19359;DHT22;9815;52.334;20.890;2023-07-31T02:54:49;16.20;99.90
19359;DHT22;9815;52.334;20.890;2023-07-31T02:57:17;16.20;99.90
19359;DHT22;9815;52.334;20.890;2023-07-31T02:59:46;16.20;99.90
19359;DHT22;9815;52.334;20.890;2023-07-31T03:02:14;16.20;99.90
19359;DHT22;9815;52.334;20.890;2023-07-31T03:04:42;16.30;99.90
19359;DHT22;9815;52.334;20.890;2023-07-31T03:07:12;16.30;99.90
19359;DHT22;9815;52.334;20.890;2023-07-31T03:09:40;16.30;99.90
19359;DHT22;9815;52.334;20.890;2023-07-31T03:12:09;16.30;99.90
19359;DHT22;9815;52.334;20.890;2023-07-31T03:14:37;16.40;99.90
19359;DHT22;9815;52.334;20.890;2023-07-31T03:17:05;16.40;99.90
19359;DHT22;9815;52.334;20.890;2023-07-31T03:19:34;16.40;99.90
19359;DHT22;9815;52.334;20.890;2023-07-31T03:22:02;16.40;99.90
19359;DHT22;9815;52.334;20.890;2023-07-31T03:24:32;16.40;99.90
19359;DHT22;9815;52.334;20.890;2023-07-31T03:27:00;16.50;99.90
19359;DHT22;9815;52.334;20.890;2023-07-31T03:29:28;16.50;99.90
19359;DHT22;9815;52.334;20.890;2023-07-31T03:31:56;16.50;99.90
19359;DHT22;9815;52.334;20.890;2023-07-31T03:34:27;16.50;99.90
19359;DHT22;9815;52.334;20.890;2023-07-31T03:36:55;16.50;99.90
19359;DHT22;9815;52.334;20.890;2023-07-31T03:39:23;16.50;99.90
19359;DHT22;9815;52.334;20.890;2023-07-31T03:41:53;16.60;99.90
19359;DHT22;9815;52.334;20.890;2023-07-31T03:44:21;16.60;99.90
19359;DHT22;9815;52.334;20.890;2023-07-31T03:46:49;16.60;99.90
19359;DHT22;9815;52.334;20.890;2023-07-31T03:49:19;16.60;99.90
19359;DHT22;9815;52.334;20.890;2023-07-31T03:51:47;16.60;99.90
19359;DHT22;9815;52.334;20.890;2023-07-31T03:54:15;16.60;99.90
19359;DHT22;9815;52.334;20.890;2023-07-31T03:56:44;16.60;99.90
19359;DHT22;9815;52.334;20.890;2023-07-31T03:59:13;16.70;99.90
19359;DHT22;9815;52.334;20.890;2023-07-31T04:01:42;16.70;99.90
19359;DHT22;9815;52.334;20.890;2023-07-31T04:04:10;16.70;99.90
19359;DHT22;9815;52.334;20.890;2023-07-31T04:06:38;16.70;99.90
19359;DHT22;9815;52.334;20.890;2023-07-31T04:09:07;16.70;99.90
19359;DHT22;9815;52.334;20.890;2023-07-31T04:11:35;16.70;99.90
19359;DHT22;9815;52.334;20.890;2023-07-31T04:14:03;16.70;99.90
19359;DHT22;9815;52.334;20.890;2023-07-31T04:16:33;16.80;99.90
19359;DHT22;9815;52.334;20.890;2023-07-31T04:19:01;16.80;99.90
19359;DHT22;9815;52.334;20.890;2023-07-31T04:21:30;16.80;99.90
19359;DHT22;9815;52.334;20.890;2023-07-31T04:23:58;16.90;99.90
19359;DHT22;9815;52.334;20.890;2023-07-31T04:26:27;16.90;99.90
19359;DHT22;9815;52.334;20.890;2023-07-31T04:28:55;16.90;99.90
19359;DHT22;9815;52.334;20.890;2023-07-31T04:31:23;17.00;99.90
19359;DHT22;9815;52.334;20.890;2023-07-31T04:33:53;17.00;99.90
19359;DHT22;9815;52.334;20.890;2023-07-31T04:36:21;17.10;99.90
19359;DHT22;9815;52.334;20.890;2023-07-31T04:38:50;17.10;99.90
19359;DHT22;9815;52.334;20.890;2023-07-31T04:41:18;17.10;99.90
19359;DHT22;9815;52.334;20.890;2023-07-31T04:43:46;17.20;99.90
19359;DHT22;9815;52.334;20.890;2023-07-31T04:46:14;17.20;99.90
19359;DHT22;9815;52.334;20.890;2023-07-31T04:48:43;17.20;99.90
19359;DHT22;9815;52.334;20.890;2023-07-31T04:51:12;17.30;99.90
19359;DHT22;9815;52.334;20.890;2023-07-31T04:53:41;17.30;99.90
19359;DHT22;9815;52.334;20.890;2023-07-31T04:56:09;17.40;99.90
19359;DHT22;9815;52.334;20.890;2023-07-31T04:58:38;17.40;99.90
19359;DHT22;9815;52.334;20.890;2023-07-31T05:01:06;17.40;99.90
19359;DHT22;9815;52.334;20.890;2023-07-31T05:03:34;17.40;99.90
19359;DHT22;9815;52.334;20.890;2023-07-31T05:06:02;17.50;99.90
19359;DHT22;9815;52.334;20.890;2023-07-31T05:08:32;17.50;99.90
19359;DHT22;9815;52.334;20.890;2023-07-31T05:11:01;17.60;99.90
19359;DHT22;9815;52.334;20.890;2023-07-31T05:13:30;17.60;99.90
19359;DHT22;9815;52.334;20.890;2023-07-31T05:15:58;17.60;99.90
19359;DHT22;9815;52.334;20.890;2023-07-31T05:18:29;17.60;99.90
19359;DHT22;9815;52.334;20.890;2023-07-31T05:20:57;17.70;99.90
19359;DHT22;9815;52.334;20.890;2023-07-31T05:23:28;17.70;99.90
19359;DHT22;9815;52.334;20.890;2023-07-31T05:26:04;17.60;99.90
19359;DHT22;9815;52.334;20.890;2023-07-31T05:28:34;17.70;99.90
19359;DHT22;9815;52.334;20.890;2023-07-31T05:31:03;17.60;99.90
19359;DHT22;9815;52.334;20.890;2023-07-31T05:33:34;17.70;99.90
19359;DHT22;9815;52.334;20.890;2023-07-31T05:36:02;17.70;99.90
19359;DHT22;9815;52.334;20.890;2023-07-31T05:38:31;17.70;99.90
19359;DHT22;9815;52.334;20.890;2023-07-31T05:40:59;17.70;99.90
19359;DHT22;9815;52.334;20.890;2023-07-31T05:43:28;17.80;99.90
19359;DHT22;9815;52.334;20.890;2023-07-31T05:45:57;17.80;99.90
19359;DHT22;9815;52.334;20.890;2023-07-31T05:48:25;17.80;99.90
19359;DHT22;9815;52.334;20.890;2023-07-31T05:50:53;17.80;99.90
19359;DHT22;9815;52.334;20.890;2023-07-31T05:53:22;17.80;99.90
19359;DHT22;9815;52.334;20.890;2023-07-31T05:55:50;17.80;99.90
19359;DHT22;9815;52.334;20.890;2023-07-31T05:58:18;17.80;99.90
19359;DHT22;9815;52.334;20.890;2023-07-31T06:00:48;17.80;99.90
19359;DHT22;9815;52.334;20.890;2023-07-31T06:03:16;17.80;99.90
19359;DHT22;9815;52.334;20.890;2023-07-31T06:05:45;17.80;99.90
19359;DHT22;9815;52.334;20.890;2023-07-31T06:08:13;17.80;99.90
19359;DHT22;9815;52.334;20.890;2023-07-31T06:10:42;17.80;99.90
19359;DHT22;9815;52.334;20.890;2023-07-31T06:13:10;17.80;99.90
19359;DHT22;9815;52.334;20.890;2023-07-31T06:15:41;17.70;99.90
19359;DHT22;9815;52.334;20.890;2023-07-31T06:18:11;17.70;99.90
19359;DHT22;9815;52.334;20.890;2023-07-31T06:20:39;17.70;99.90
19359;DHT22;9815;52.334;20.890;2023-07-31T06:23:08;17.70;99.90
19359;DHT22;9815;52.334;20.890;2023-07-31T06:25:36;17.80;99.90
19359;DHT22;9815;52.334;20.890;2023-07-31T06:28:05;17.80;99.90
19359;DHT22;9815;52.334;20.890;2023-07-31T06:30:33;17.80;99.90
19359;DHT22;9815;52.334;20.890;2023-07-31T06:33:01;17.90;99.90
19359;DHT22;9815;52.334;20.890;2023-07-31T06:35:31;17.90;99.90
19359;DHT22;9815;52.334;20.890;2023-07-31T06:37:59;17.90;99.90
19359;DHT22;9815;52.334;20.890;2023-07-31T06:40:28;17.90;99.90
19359;DHT22;9815;52.334;20.890;2023-07-31T06:42:57;17.90;99.90
19359;DHT22;9815;52.334;20.890;2023-07-31T06:45:25;18.00;99.90
19359;DHT22;9815;52.334;20.890;2023-07-31T06:47:54;18.20;99.90
19359;DHT22;9815;52.334;20.890;2023-07-31T06:50:22;18.40;99.90
19359;DHT22;9815;52.334;20.890;2023-07-31T06:52:52;18.60;99.90
19359;DHT22;9815;52.334;20.890;2023-07-31T06:55:21;18.80;99.90
19359;DHT22;9815;52.334;20.890;2023-07-31T06:57:50;18.90;99.90
19359;DHT22;9815;52.334;20.890;2023-07-31T07:00:19;18.90;99.90
19359;DHT22;9815;52.334;20.890;2023-07-31T07:02:49;19.00;99.90
19359;DHT22;9815;52.334;20.890;2023-07-31T07:05:18;19.10;99.90
19359;DHT22;9815;52.334;20.890;2023-07-31T07:07:46;19.00;99.90
19359;DHT22;9815;52.334;20.890;2023-07-31T07:10:16;19.10;99.90
19359;DHT22;9815;52.334;20.890;2023-07-31T07:12:44;19.10;99.90
19359;DHT22;9815;52.334;20.890;2023-07-31T07:15:12;19.10;99.90
19359;DHT22;9815;52.334;20.890;2023-07-31T07:17:41;19.00;99.90
19359;DHT22;9815;52.334;20.890;2023-07-31T07:20:09;19.00;99.90
19359;DHT22;9815;52.334;20.890;2023-07-31T07:22:37;19.20;99.90
19359;DHT22;9815;52.334;20.890;2023-07-31T07:25:06;19.20;99.90
19359;DHT22;9815;52.334;20.890;2023-07-31T07:27:36;19.40;99.90
19359;DHT22;9815;52.334;20.890;2023-07-31T07:30:05;19.60;99.90
19359;DHT22;9815;52.334;20.890;2023-07-31T07:32:34;19.70;99.90
19359;DHT22;9815;52.334;20.890;2023-07-31T07:35:03;19.70;99.90
19359;DHT22;9815;52.334;20.890;2023-07-31T07:37:31;19.90;99.90
19359;DHT22;9815;52.334;20.890;2023-07-31T07:40:01;20.00;99.90
19359;DHT22;9815;52.334;20.890;2023-07-31T07:42:29;20.10;99.90
19359;DHT22;9815;52.334;20.890;2023-07-31T07:44:58;20.20;99.90
19359;DHT22;9815;52.334;20.890;2023-07-31T07:47:27;20.40;99.90
19359;DHT22;9815;52.334;20.890;2023-07-31T07:49:55;20.50;99.90
19359;DHT22;9815;52.334;20.890;2023-07-31T07:52:23;20.50;99.90
19359;DHT22;9815;52.334;20.890;2023-07-31T07:54:52;20.50;99.90
19359;DHT22;9815;52.334;20.890;2023-07-31T07:57:20;20.60;99.90
19359;DHT22;9815;52.334;20.890;2023-07-31T07:59:48;20.80;99.90
19359;DHT22;9815;52.334;20.890;2023-07-31T08:02:18;21.00;99.90
19359;DHT22;9815;52.334;20.890;2023-07-31T08:04:46;21.10;99.90
19359;DHT22;9815;52.334;20.890;2023-07-31T08:07:15;21.30;99.90
19359;DHT22;9815;52.334;20.890;2023-07-31T08:09:43;21.30;99.90
19359;DHT22;9815;52.334;20.890;2023-07-31T08:12:11;21.40;99.90
19359;DHT22;9815;52.334;20.890;2023-07-31T08:14:40;21.60;99.90
19359;DHT22;9815;52.334;20.890;2023-07-31T08:17:08;21.80;99.90
19359;DHT22;9815;52.334;20.890;2023-07-31T08:19:38;22.10;99.90
19359;DHT22;9815;52.334;20.890;2023-07-31T08:22:06;22.20;99.90
19359;DHT22;9815;52.334;20.890;2023-07-31T08:24:35;22.40;98.20
19359;DHT22;9815;52.334;20.890;2023-07-31T08:27:03;22.70;98.20
19359;DHT22;9815;52.334;20.890;2023-07-31T08:29:33;22.90;84.40
19359;DHT22;9815;52.334;20.890;2023-07-31T08:32:02;22.90;77.40
19359;DHT22;9815;52.334;20.890;2023-07-31T08:34:30;22.90;76.80
19359;DHT22;9815;52.334;20.890;2023-07-31T08:37:00;22.80;78.20
19359;DHT22;9815;52.334;20.890;2023-07-31T08:39:29;22.90;84.70
19359;DHT22;9815;52.334;20.890;2023-07-31T08:42:00;23.30;70.10
19359;DHT22;9815;52.334;20.890;2023-07-31T08:44:29;23.40;63.40
19359;DHT22;9815;52.334;20.890;2023-07-31T08:46:59;23.40;59.70
19359;DHT22;9815;52.334;20.890;2023-07-31T08:49:29;23.50;52.80
19359;DHT22;9815;52.334;20.890;2023-07-31T08:51:59;23.70;51.10
19359;DHT22;9815;52.334;20.890;2023-07-31T08:54:28;23.50;48.80
19359;DHT22;9815;52.334;20.890;2023-07-31T08:56:58;23.50;55.00
19359;DHT22;9815;52.334;20.890;2023-07-31T08:59:29;23.50;53.10
19359;DHT22;9815;52.334;20.890;2023-07-31T09:02:05;23.60;49.30
19359;DHT22;9815;52.334;20.890;2023-07-31T09:04:34;24.00;48.30
19359;DHT22;9815;52.334;20.890;2023-07-31T09:07:04;24.10;43.10
19359;DHT22;9815;52.334;20.890;2023-07-31T09:09:33;24.40;43.70
19359;DHT22;9815;52.334;20.890;2023-07-31T09:12:03;24.60;40.00
19359;DHT22;9815;52.334;20.890;2023-07-31T09:14:32;24.60;36.50
19359;DHT22;9815;52.334;20.890;2023-07-31T09:17:01;24.50;37.90
19359;DHT22;9815;52.334;20.890;2023-07-31T09:19:33;24.10;39.30
19359;DHT22;9815;52.334;20.890;2023-07-31T09:22:05;23.90;41.90
19359;DHT22;9815;52.334;20.890;2023-07-31T09:24:34;23.90;44.70
19359;DHT22;9815;52.334;20.890;2023-07-31T09:27:03;23.70;40.10
19359;DHT22;9815;52.334;20.890;2023-07-31T09:29:31;23.10;39.00
19359;DHT22;9815;52.334;20.890;2023-07-31T09:32:00;22.80;40.50
19359;DHT22;9815;52.334;20.890;2023-07-31T09:34:30;22.60;40.70
19359;DHT22;9815;52.334;20.890;2023-07-31T09:37:01;22.60;40.90
19359;DHT22;9815;52.334;20.890;2023-07-31T09:39:32;22.60;37.90
19359;DHT22;9815;52.334;20.890;2023-07-31T09:42:04;22.90;38.30
19359;DHT22;9815;52.334;20.890;2023-07-31T09:44:39;23.10;36.80
19359;DHT22;9815;52.334;20.890;2023-07-31T09:47:22;23.20;37.50
19359;DHT22;9815;52.334;20.890;2023-07-31T09:49:52;23.40;36.10
19359;DHT22;9815;52.334;20.890;2023-07-31T09:52:21;23.70;35.70
19359;DHT22;9815;52.334;20.890;2023-07-31T09:54:51;23.90;33.50
19359;DHT22;9815;52.334;20.890;2023-07-31T09:57:21;24.00;29.90
19359;DHT22;9815;52.334;20.890;2023-07-31T09:59:52;23.90;29.60
19359;DHT22;9815;52.334;20.890;2023-07-31T10:02:22;23.90;31.70
19359;DHT22;9815;52.334;20.890;2023-07-31T10:04:51;24.00;32.60
19359;DHT22;9815;52.334;20.890;2023-07-31T10:07:20;23.90;30.20
19359;DHT22;9815;52.334;20.890;2023-07-31T10:09:53;23.90;31.20
19359;DHT22;9815;52.334;20.890;2023-07-31T10:12:24;24.10;30.40
19359;DHT22;9815;52.334;20.890;2023-07-31T10:14:54;23.80;29.70
19359;DHT22;9815;52.334;20.890;2023-07-31T10:17:24;23.40;30.00
19359;DHT22;9815;52.334;20.890;2023-07-31T10:19:53;23.20;30.90
19359;DHT22;9815;52.334;20.890;2023-07-31T10:22:22;23.10;30.70
19359;DHT22;9815;52.334;20.890;2023-07-31T10:24:50;23.20;30.70
19359;DHT22;9815;52.334;20.890;2023-07-31T10:27:21;23.20;32.50
19359;DHT22;9815;52.334;20.890;2023-07-31T10:29:50;23.30;31.90
19359;DHT22;9815;52.334;20.890;2023-07-31T10:32:21;23.40;30.50
19359;DHT22;9815;52.334;20.890;2023-07-31T10:34:50;23.60;30.20
19359;DHT22;9815;52.334;20.890;2023-07-31T10:37:24;23.70;28.60
19359;DHT22;9815;52.334;20.890;2023-07-31T10:40:00;23.50;28.90
19359;DHT22;9815;52.334;20.890;2023-07-31T10:42:33;23.80;27.90
19359;DHT22;9815;52.334;20.890;2023-07-31T10:45:04;24.00;29.70
19359;DHT22;9815;52.334;20.890;2023-07-31T10:47:37;23.70;28.50
19359;DHT22;9815;52.334;20.890;2023-07-31T10:50:19;23.70;28.50
19359;DHT22;9815;52.334;20.890;2023-07-31T10:52:50;23.70;28.80
19359;DHT22;9815;52.334;20.890;2023-07-31T10:55:30;23.90;28.40
19359;DHT22;9815;52.334;20.890;2023-07-31T10:58:06;24.10;27.90
19359;DHT22;9815;52.334;20.890;2023-07-31T11:00:37;24.40;27.50
19359;DHT22;9815;52.334;20.890;2023-07-31T11:03:08;24.30;25.80
19359;DHT22;9815;52.334;20.890;2023-07-31T11:05:48;23.90;26.90
19359;DHT22;9815;52.334;20.890;2023-07-31T11:08:19;23.60;26.30
19359;DHT22;9815;52.334;20.890;2023-07-31T11:10:50;24.00;27.10
19359;DHT22;9815;52.334;20.890;2023-07-31T11:13:19;24.00;27.30
19359;DHT22;9815;52.334;20.890;2023-07-31T11:15:48;24.10;26.70
19359;DHT22;9815;52.334;20.890;2023-07-31T11:18:16;24.10;25.50
19359;DHT22;9815;52.334;20.890;2023-07-31T11:20:45;24.20;26.60
19359;DHT22;9815;52.334;20.890;2023-07-31T11:23:16;24.30;26.00
19359;DHT22;9815;52.334;20.890;2023-07-31T11:25:45;24.40;24.70
19359;DHT22;9815;52.334;20.890;2023-07-31T11:28:15;24.40;24.40
19359;DHT22;9815;52.334;20.890;2023-07-31T11:30:46;24.30;26.00
19359;DHT22;9815;52.334;20.890;2023-07-31T11:33:14;24.40;25.10
19359;DHT22;9815;52.334;20.890;2023-07-31T11:35:44;24.10;25.80
19359;DHT22;9815;52.334;20.890;2023-07-31T11:38:21;24.00;25.40
19359;DHT22;9815;52.334;20.890;2023-07-31T11:40:51;24.00;26.00
19359;DHT22;9815;52.334;20.890;2023-07-31T11:43:20;23.70;26.40
19359;DHT22;9815;52.334;20.890;2023-07-31T11:45:51;23.60;25.80
19359;DHT22;9815;52.334;20.890;2023-07-31T11:48:22;23.50;26.80
19359;DHT22;9815;52.334;20.890;2023-07-31T11:50:55;23.50;26.20
19359;DHT22;9815;52.334;20.890;2023-07-31T11:53:28;23.60;25.90
19359;DHT22;9815;52.334;20.890;2023-07-31T11:55:59;23.70;27.60
19359;DHT22;9815;52.334;20.890;2023-07-31T11:58:29;23.70;25.70
19359;DHT22;9815;52.334;20.890;2023-07-31T12:01:00;23.90;27.00
19359;DHT22;9815;52.334;20.890;2023-07-31T12:03:29;23.80;26.50
19359;DHT22;9815;52.334;20.890;2023-07-31T12:05:58;24.00;25.70
19359;DHT22;9815;52.334;20.890;2023-07-31T12:08:26;24.30;25.80
19359;DHT22;9815;52.334;20.890;2023-07-31T12:11:02;24.30;25.00
19359;DHT22;9815;52.334;20.890;2023-07-31T12:13:31;24.30;25.30
19359;DHT22;9815;52.334;20.890;2023-07-31T12:16:03;23.90;25.50
19359;DHT22;9815;52.334;20.890;2023-07-31T12:18:34;23.90;27.20
19359;DHT22;9815;52.334;20.890;2023-07-31T12:21:05;23.60;26.00
19359;DHT22;9815;52.334;20.890;2023-07-31T12:23:36;23.50;27.00
19359;DHT22;9815;52.334;20.890;2023-07-31T12:26:05;23.40;27.20
19359;DHT22;9815;52.334;20.890;2023-07-31T12:28:38;23.20;27.10
19359;DHT22;9815;52.334;20.890;2023-07-31T12:31:10;23.30;27.90
19359;DHT22;9815;52.334;20.890;2023-07-31T12:33:40;23.30;27.60
19359;DHT22;9815;52.334;20.890;2023-07-31T12:36:10;23.20;27.50
19359;DHT22;9815;52.334;20.890;2023-07-31T12:38:39;23.30;27.10
19359;DHT22;9815;52.334;20.890;2023-07-31T12:41:07;23.40;27.20
19359;DHT22;9815;52.334;20.890;2023-07-31T12:43:36;23.50;26.50
19359;DHT22;9815;52.334;20.890;2023-07-31T12:46:05;24.00;26.70
19359;DHT22;9815;52.334;20.890;2023-07-31T12:48:37;24.40;26.30
19359;DHT22;9815;52.334;20.890;2023-07-31T12:51:06;24.90;25.00
19359;DHT22;9815;52.334;20.890;2023-07-31T12:53:35;25.30;24.80
19359;DHT22;9815;52.334;20.890;2023-07-31T12:56:03;25.60;23.50
19359;DHT22;9815;52.334;20.890;2023-07-31T12:58:32;25.80;23.40
19359;DHT22;9815;52.334;20.890;2023-07-31T13:01:00;25.60;23.50
19359;DHT22;9815;52.334;20.890;2023-07-31T13:03:29;25.80;23.30
19359;DHT22;9815;52.334;20.890;2023-07-31T13:05:59;25.70;22.60
19359;DHT22;9815;52.334;20.890;2023-07-31T13:08:28;25.60;23.00
19359;DHT22;9815;52.334;20.890;2023-07-31T13:10:56;25.80;22.30
19359;DHT22;9815;52.334;20.890;2023-07-31T13:13:24;26.10;21.60
19359;DHT22;9815;52.334;20.890;2023-07-31T13:15:53;26.60;21.50
19359;DHT22;9815;52.334;20.890;2023-07-31T13:18:21;26.60;20.70
19359;DHT22;9815;52.334;20.890;2023-07-31T13:20:49;26.60;20.00
19359;DHT22;9815;52.334;20.890;2023-07-31T13:23:19;26.10;20.70
19359;DHT22;9815;52.334;20.890;2023-07-31T13:25:48;25.40;20.80
19359;DHT22;9815;52.334;20.890;2023-07-31T13:28:16;25.00;22.70
19359;DHT22;9815;52.334;20.890;2023-07-31T13:30:44;24.40;24.20
19359;DHT22;9815;52.334;20.890;2023-07-31T13:33:13;24.10;24.80
19359;DHT22;9815;52.334;20.890;2023-07-31T13:36:01;23.70;25.80
19359;DHT22;9815;52.334;20.890;2023-07-31T13:38:31;23.50;25.80
19359;DHT22;9815;52.334;20.890;2023-07-31T13:40:59;23.50;27.10
19359;DHT22;9815;52.334;20.890;2023-07-31T13:43:28;23.40;26.90
19359;DHT22;9815;52.334;20.890;2023-07-31T13:45:56;23.40;27.20
19359;DHT22;9815;52.334;20.890;2023-07-31T13:48:30;23.30;26.20
19359;DHT22;9815;52.334;20.890;2023-07-31T13:50:58;23.50;26.20
19359;DHT22;9815;52.334;20.890;2023-07-31T13:53:27;23.90;25.70
19359;DHT22;9815;52.334;20.890;2023-07-31T13:55:57;24.10;24.50
19359;DHT22;9815;52.334;20.890;2023-07-31T13:58:25;24.10;24.00
19359;DHT22;9815;52.334;20.890;2023-07-31T14:00:56;23.90;24.60
19359;DHT22;9815;52.334;20.890;2023-07-31T14:03:25;23.70;24.70
19359;DHT22;9815;52.334;20.890;2023-07-31T14:05:53;23.60;25.30
19359;DHT22;9815;52.334;20.890;2023-07-31T14:08:22;23.40;24.70
19359;DHT22;9815;52.334;20.890;2023-07-31T14:10:50;23.30;25.60
19359;DHT22;9815;52.334;20.890;2023-07-31T14:13:20;23.10;25.60
19359;DHT22;9815;52.334;20.890;2023-07-31T14:15:49;23.00;26.40
19359;DHT22;9815;52.334;20.890;2023-07-31T14:18:17;22.90;26.40
19359;DHT22;9815;52.334;20.890;2023-07-31T14:20:46;23.00;27.20
19359;DHT22;9815;52.334;20.890;2023-07-31T14:23:18;22.90;26.60
19359;DHT22;9815;52.334;20.890;2023-07-31T14:25:47;22.90;27.30
19359;DHT22;9815;52.334;20.890;2023-07-31T14:28:15;22.90;27.10
19359;DHT22;9815;52.334;20.890;2023-07-31T14:30:45;23.10;26.70
19359;DHT22;9815;52.334;20.890;2023-07-31T14:33:13;23.20;26.00
19359;DHT22;9815;52.334;20.890;2023-07-31T14:35:41;23.30;25.90
19359;DHT22;9815;52.334;20.890;2023-07-31T14:38:10;23.30;26.10
19359;DHT22;9815;52.334;20.890;2023-07-31T14:40:38;23.40;26.80
19359;DHT22;9815;52.334;20.890;2023-07-31T14:43:07;23.60;25.90
19359;DHT22;9815;52.334;20.890;2023-07-31T14:45:36;23.70;25.40
19359;DHT22;9815;52.334;20.890;2023-07-31T14:48:06;24.00;25.40
19359;DHT22;9815;52.334;20.890;2023-07-31T14:50:34;24.40;24.10
19359;DHT22;9815;52.334;20.890;2023-07-31T14:53:03;24.50;23.40
19359;DHT22;9815;52.334;20.890;2023-07-31T14:55:31;24.20;23.90
19359;DHT22;9815;52.334;20.890;2023-07-31T14:57:59;23.80;24.20
19359;DHT22;9815;52.334;20.890;2023-07-31T15:00:28;23.60;25.10
19359;DHT22;9815;52.334;20.890;2023-07-31T15:02:56;23.30;25.90
19359;DHT22;9815;52.334;20.890;2023-07-31T15:05:26;23.10;26.80
19359;DHT22;9815;52.334;20.890;2023-07-31T15:07:54;22.90;27.20
19359;DHT22;9815;52.334;20.890;2023-07-31T15:10:23;22.70;27.50
19359;DHT22;9815;52.334;20.890;2023-07-31T15:12:51;22.60;28.20
19359;DHT22;9815;52.334;20.890;2023-07-31T15:15:19;22.50;28.00
19359;DHT22;9815;52.334;20.890;2023-07-31T15:17:48;22.50;29.00
19359;DHT22;9815;52.334;20.890;2023-07-31T15:20:16;22.40;29.20
19359;DHT22;9815;52.334;20.890;2023-07-31T15:22:46;22.50;29.30
19359;DHT22;9815;52.334;20.890;2023-07-31T15:25:15;22.50;29.20
19359;DHT22;9815;52.334;20.890;2023-07-31T15:27:44;22.50;29.50
19359;DHT22;9815;52.334;20.890;2023-07-31T15:30:12;22.50;29.50
19359;DHT22;9815;52.334;20.890;2023-07-31T15:32:40;22.60;30.00
19359;DHT22;9815;52.334;20.890;2023-07-31T15:35:09;22.60;29.80
19359;DHT22;9815;52.334;20.890;2023-07-31T15:37:37;22.70;30.00
19359;DHT22;9815;52.334;20.890;2023-07-31T15:40:08;22.70;30.00
19359;DHT22;9815;52.334;20.890;2023-07-31T15:42:36;22.80;31.70
19359;DHT22;9815;52.334;20.890;2023-07-31T15:45:07;22.80;29.70